createdAt,value
2019-01-12T00:00:12.281Z,95.23
2019-01-12T00:02:40.804Z,96.35
2019-01-12T00:05:09.673Z,96.22
2019-01-12T00:07:38.140Z,94.47
2019-01-12T00:10:08.793Z,94.71
2019-01-12T00:12:37.421Z,94.70
2019-01-12T00:15:07.457Z,94.46
2019-01-12T00:17:36.238Z,93.84
2019-01-12T00:20:07.016Z,94.19
2019-01-12T00:22:35.776Z,94.47
2019-01-12T00:25:06.724Z,94.82
2019-01-12T00:27:35.323Z,94.45
2019-01-12T00:30:05.180Z,93.91
2019-01-12T00:32:33.724Z,92.59
2019-01-12T00:35:02.300Z,93.71
2019-01-12T00:37:30.802Z,92.49
2019-01-12T00:39:59.328Z,92.95
2019-01-12T00:42:27.908Z,89.88
2019-01-12T00:44:56.296Z,89.68
2019-01-12T00:47:24.849Z,90.16
2019-01-12T00:49:53.337Z,91.32
2019-01-12T00:52:21.877Z,91.30
2019-01-12T00:54:50.690Z,89.79
2019-01-12T00:57:19.346Z,88.82
2019-01-12T00:59:47.845Z,88.88
2019-01-12T01:02:16.451Z,89.09
2019-01-12T01:04:44.864Z,89.46
2019-01-12T01:07:13.465Z,90.59
2019-01-12T01:09:41.967Z,89.94
2019-01-12T01:12:10.753Z,89.85
2019-01-12T01:14:39.620Z,88.80
2019-01-12T01:17:08.078Z,88.14
2019-01-12T01:19:36.684Z,88.36
2019-01-12T01:22:05.175Z,87.68
2019-01-12T01:24:33.690Z,87.11
2019-01-12T01:27:02.245Z,88.09
2019-01-12T01:29:30.714Z,87.79
2019-01-12T01:31:59.186Z,86.67
2019-01-12T01:34:27.795Z,86.89
2019-01-12T01:36:56.305Z,86.40
2019-01-12T01:39:24.781Z,87.09
2019-01-12T01:41:53.450Z,86.94
2019-01-12T01:44:21.979Z,87.01
2019-01-12T01:46:50.548Z,86.85
2019-01-12T01:49:19.155Z,86.90
2019-01-12T01:51:47.685Z,87.15
2019-01-12T01:54:16.451Z,87.29
2019-01-12T01:56:45.281Z,87.34
2019-01-12T01:59:13.856Z,87.85
2019-01-12T02:01:42.593Z,87.59
2019-01-12T02:04:11.518Z,87.44
2019-01-12T02:06:40.060Z,88.12
2019-01-12T02:09:08.640Z,88.32
2019-01-12T02:11:37.188Z,88.60
2019-01-12T02:14:05.844Z,88.29
2019-01-12T02:16:34.399Z,88.66
2019-01-12T02:19:02.954Z,88.41
2019-01-12T02:21:31.429Z,87.73
2019-01-12T02:24:00.001Z,87.13
2019-01-12T02:26:28.508Z,88.33
2019-01-12T02:28:56.973Z,88.94
2019-01-12T02:31:25.528Z,89.17
2019-01-12T02:33:54.001Z,88.29
2019-01-12T02:36:22.587Z,87.98
2019-01-12T02:38:51.050Z,88.48
2019-01-12T02:41:19.589Z,88.36
2019-01-12T02:43:48.347Z,88.04
2019-01-12T02:46:17.311Z,88.05
2019-01-12T02:48:45.770Z,87.45
2019-01-12T02:51:14.428Z,88.03
2019-01-12T02:53:42.957Z,87.15
2019-01-12T02:56:11.909Z,88.02
2019-01-12T02:58:40.621Z,86.99
2019-01-12T03:01:09.247Z,87.35
2019-01-12T03:03:37.626Z,87.39
2019-01-12T03:06:06.114Z,87.02
2019-01-12T03:08:34.599Z,86.69
2019-01-12T03:11:03.105Z,87.38
2019-01-12T03:13:31.672Z,88.18
2019-01-12T03:16:00.129Z,88.32
2019-01-12T03:18:28.601Z,88.68
2019-01-12T03:20:57.142Z,88.62
2019-01-12T03:23:25.615Z,89.06
2019-01-12T03:25:54.127Z,89.17
2019-01-12T03:28:22.641Z,89.36
2019-01-12T03:30:51.170Z,89.52
2019-01-12T03:33:19.714Z,89.20
2019-01-12T03:35:48.205Z,89.25
2019-01-12T03:38:16.679Z,89.45
2019-01-12T03:40:45.241Z,89.76
2019-01-12T03:43:14.105Z,90.06
2019-01-12T03:45:42.617Z,89.73
2019-01-12T03:48:11.107Z,90.04
2019-01-12T03:50:39.634Z,90.30
2019-01-12T03:53:08.135Z,90.54
2019-01-12T03:55:36.593Z,90.19
2019-01-12T03:58:05.434Z,90.22
2019-01-12T04:00:33.971Z,90.53
2019-01-12T04:03:02.464Z,90.79
2019-01-12T04:05:30.919Z,90.40
2019-01-12T04:07:59.379Z,90.95
2019-01-12T04:10:27.937Z,90.88
2019-01-12T04:12:56.466Z,90.77
2019-01-12T04:15:25.005Z,90.91
2019-01-12T04:17:53.595Z,90.99
2019-01-12T04:20:22.108Z,90.88
2019-01-12T04:22:50.653Z,90.78
2019-01-12T04:25:19.257Z,91.19
2019-01-12T04:27:47.794Z,91.00
2019-01-12T04:30:16.912Z,91.19
2019-01-12T04:32:45.398Z,90.95
2019-01-12T04:35:13.940Z,91.13
2019-01-12T04:37:42.453Z,90.63
2019-01-12T04:40:18.052Z,90.46
2019-01-12T04:42:46.522Z,90.61
2019-01-12T04:45:15.229Z,91.03
2019-01-12T04:47:43.709Z,90.54
2019-01-12T04:50:14.054Z,90.77
2019-01-12T04:52:42.561Z,90.29
2019-01-12T04:55:11.262Z,90.66
2019-01-12T04:57:39.753Z,89.98
2019-01-12T05:00:11.415Z,90.49
2019-01-12T05:02:39.975Z,90.40
2019-01-12T05:05:08.557Z,90.38
2019-01-12T05:07:37.067Z,90.18
2019-01-12T05:10:08.445Z,89.28
2019-01-12T05:12:37.107Z,89.11
2019-01-12T05:15:08.440Z,88.85
2019-01-12T05:17:36.904Z,89.33
2019-01-12T05:20:08.509Z,88.00
2019-01-12T05:22:36.971Z,88.93
2019-01-12T05:25:06.222Z,88.03
2019-01-12T05:27:34.673Z,88.57
2019-01-12T05:30:04.878Z,88.81
2019-01-12T05:32:33.350Z,89.19
2019-01-12T05:35:01.849Z,88.86
2019-01-12T05:37:30.290Z,87.51
2019-01-12T05:39:58.789Z,87.69
2019-01-12T05:42:27.309Z,87.36
2019-01-12T05:44:55.921Z,88.27
2019-01-12T05:47:24.379Z,88.51
2019-01-12T05:49:54.241Z,87.87
2019-01-12T05:52:22.800Z,88.07
2019-01-12T05:54:51.277Z,88.13
2019-01-12T05:57:19.741Z,88.05
2019-01-12T05:59:48.274Z,87.88
2019-01-12T06:02:16.830Z,88.18
2019-01-12T06:04:45.358Z,87.72
2019-01-12T06:07:13.860Z,87.02
2019-01-12T06:09:42.315Z,87.08
2019-01-12T06:12:10.888Z,85.37
2019-01-12T06:14:39.356Z,86.56
2019-01-12T06:17:07.837Z,86.80
2019-01-12T06:19:36.287Z,86.30
2019-01-12T06:22:04.858Z,86.42
2019-01-12T06:24:33.384Z,85.57
2019-01-12T06:27:01.890Z,84.98
2019-01-12T06:29:30.833Z,83.94
2019-01-12T06:31:59.369Z,83.83
2019-01-12T06:34:27.932Z,83.89
2019-01-12T06:36:56.365Z,83.66
2019-01-12T06:39:24.926Z,84.68
2019-01-12T06:41:53.514Z,84.71
2019-01-12T06:44:22.007Z,83.99
2019-01-12T06:46:50.541Z,84.92
2019-01-12T06:49:19.183Z,84.54
2019-01-12T06:51:47.718Z,84.93
2019-01-12T06:54:16.316Z,83.62
2019-01-12T06:56:44.833Z,82.75
2019-01-12T06:59:13.419Z,82.71
2019-01-12T07:01:41.921Z,82.99
2019-01-12T07:04:10.650Z,83.34
2019-01-12T07:06:39.185Z,83.59
2019-01-12T07:09:07.923Z,83.47
2019-01-12T07:11:36.383Z,83.73
2019-01-12T07:14:04.943Z,83.53
2019-01-12T07:16:33.398Z,83.87
2019-01-12T07:19:01.927Z,83.70
2019-01-12T07:21:30.547Z,84.38
2019-01-12T07:23:59.087Z,84.53
2019-01-12T07:26:27.793Z,84.93
2019-01-12T07:28:56.265Z,84.81
2019-01-12T07:31:24.831Z,85.38
2019-01-12T07:33:53.382Z,85.52
2019-01-12T07:36:22.008Z,85.82
2019-01-12T07:38:50.554Z,86.51
2019-01-12T07:41:19.133Z,87.26
2019-01-12T07:43:47.639Z,87.77
2019-01-12T07:46:16.099Z,88.15
2019-01-12T07:48:44.639Z,88.65
2019-01-12T07:51:13.190Z,89.05
2019-01-12T07:53:41.757Z,89.98
2019-01-12T07:56:10.270Z,90.46
2019-01-12T07:58:38.851Z,90.84
2019-01-12T08:01:07.430Z,91.25
2019-01-12T08:03:36.045Z,91.54
2019-01-12T08:06:04.710Z,91.72
2019-01-12T08:08:33.248Z,91.65
2019-01-12T08:11:02.245Z,91.85
2019-01-12T08:13:30.919Z,91.82
2019-01-12T08:15:59.459Z,92.36
2019-01-12T08:18:27.938Z,92.76
2019-01-12T08:20:56.472Z,92.62
2019-01-12T08:23:25.004Z,92.72
2019-01-12T08:25:53.595Z,92.91
2019-01-12T08:28:22.110Z,92.92
2019-01-12T08:30:50.603Z,92.84
2019-01-12T08:33:19.210Z,92.67
2019-01-12T08:35:47.764Z,92.65
2019-01-12T08:38:16.327Z,92.60
2019-01-12T08:40:44.811Z,92.67
2019-01-12T08:43:13.467Z,92.52
2019-01-12T08:45:41.929Z,92.75
2019-01-12T08:48:10.481Z,93.01
2019-01-12T08:50:39.293Z,93.94
2019-01-12T08:53:10.681Z,94.68
2019-01-12T08:55:39.205Z,95.17
2019-01-12T08:58:07.785Z,95.60
2019-01-12T09:00:36.240Z,96.63
2019-01-12T09:03:04.792Z,97.43
2019-01-12T09:05:33.456Z,98.36
2019-01-12T09:08:01.906Z,99.54
2019-01-12T09:10:30.516Z,100.00
2019-01-12T09:12:59.161Z,100.00
2019-01-12T09:15:27.715Z,100.00
2019-01-12T09:17:56.173Z,100.00
2019-01-12T09:20:25.027Z,100.00
2019-01-12T09:22:53.548Z,100.00
2019-01-12T09:25:22.438Z,100.00
2019-01-12T09:27:51.064Z,100.00
2019-01-12T09:30:20.412Z,100.00
2019-01-12T09:32:48.989Z,100.00
2019-01-12T09:35:17.549Z,100.00
2019-01-12T09:37:46.049Z,100.00
2019-01-12T09:40:16.683Z,100.00
2019-01-12T09:42:45.306Z,100.00
2019-01-12T09:45:15.715Z,100.00
2019-01-12T09:47:44.294Z,100.00
2019-01-12T09:50:17.530Z,100.00
2019-01-12T09:52:46.164Z,100.00
2019-01-12T09:55:15.223Z,100.00
2019-01-12T09:57:44.067Z,100.00
2019-01-12T10:00:21.320Z,100.00
2019-01-12T10:02:49.870Z,100.00
2019-01-12T10:05:18.528Z,100.00
2019-01-12T10:07:47.130Z,100.00
2019-01-12T10:10:17.970Z,100.00
2019-01-12T10:12:46.512Z,100.00
2019-01-12T10:15:15.562Z,100.00
2019-01-12T10:17:44.183Z,100.00
2019-01-12T10:20:15.337Z,100.00
2019-01-12T10:22:44.070Z,100.00
2019-01-12T10:25:13.224Z,100.00
2019-01-12T10:27:41.760Z,100.00
2019-01-12T10:30:21.214Z,100.00
2019-01-12T10:32:49.845Z,100.00
2019-01-12T10:35:18.417Z,100.00
2019-01-12T10:37:46.974Z,100.00
2019-01-12T10:40:17.375Z,100.00
2019-01-12T10:42:45.930Z,100.00
2019-01-12T10:45:16.931Z,100.00
2019-01-12T10:47:45.657Z,100.00
2019-01-12T10:50:22.930Z,100.00
2019-01-12T10:52:51.690Z,100.00
2019-01-12T10:55:20.333Z,100.00
2019-01-12T10:57:49.336Z,100.00
2019-01-12T11:00:20.689Z,100.00
2019-01-12T11:02:50.353Z,100.00
2019-01-12T11:05:19.250Z,100.00
2019-01-12T11:07:47.801Z,100.00
2019-01-12T11:10:16.384Z,100.00
2019-01-12T11:12:45.137Z,100.00
2019-01-12T11:15:16.612Z,99.60
2019-01-12T11:17:45.238Z,99.86
2019-01-12T11:20:13.781Z,99.76
2019-01-12T11:22:42.385Z,99.88
2019-01-12T11:25:13.552Z,100.00
2019-01-12T11:27:42.211Z,99.29
2019-01-12T11:30:19.006Z,99.30
2019-01-12T11:32:47.561Z,98.18
2019-01-12T11:35:16.177Z,97.47
2019-01-12T11:37:44.769Z,96.91
2019-01-12T11:40:18.464Z,97.26
2019-01-12T11:42:47.962Z,97.03
2019-01-12T11:45:16.705Z,96.83
2019-01-12T11:47:45.311Z,97.04
2019-01-12T11:50:17.218Z,97.12
2019-01-12T11:52:46.772Z,97.42
2019-01-12T11:55:16.879Z,97.97
2019-01-12T11:57:45.492Z,97.32
2019-01-12T12:00:25.635Z,97.55
2019-01-12T12:02:54.448Z,98.35
2019-01-12T12:05:22.956Z,98.38
2019-01-12T12:07:51.732Z,98.07
2019-01-12T12:10:21.068Z,98.77
2019-01-12T12:12:49.608Z,97.47
2019-01-12T12:15:20.659Z,96.55
2019-01-12T12:17:49.382Z,96.71
2019-01-12T12:20:25.580Z,96.92
2019-01-12T12:22:54.315Z,96.11
2019-01-12T12:25:22.869Z,95.94
2019-01-12T12:27:51.459Z,96.03
2019-01-12T12:30:24.977Z,95.90
2019-01-12T12:32:53.600Z,95.39
2019-01-12T12:35:22.173Z,95.09
2019-01-12T12:37:50.881Z,95.27
2019-01-12T12:40:20.957Z,95.39
2019-01-12T12:42:49.594Z,94.93
2019-01-12T12:45:29.582Z,94.14
2019-01-12T12:47:58.151Z,94.12
2019-01-12T12:50:26.762Z,94.13
2019-01-12T12:52:55.386Z,93.70
2019-01-12T12:55:23.872Z,93.54
2019-01-12T12:57:52.417Z,93.94
2019-01-12T13:00:26.111Z,92.99
2019-01-12T13:02:54.765Z,92.40
2019-01-12T13:05:23.403Z,91.92
2019-01-12T13:07:52.022Z,91.91
2019-01-12T13:10:23.051Z,90.98
2019-01-12T13:12:51.618Z,91.07
2019-01-12T13:15:20.262Z,91.62
2019-01-12T13:17:49.126Z,91.40
2019-01-12T13:20:20.579Z,91.14
2019-01-12T13:22:49.568Z,90.52
2019-01-12T13:25:18.155Z,90.62
2019-01-12T13:27:46.813Z,90.75
2019-01-12T13:30:17.936Z,91.43
2019-01-12T13:32:46.441Z,90.05
2019-01-12T13:35:15.156Z,89.56
2019-01-12T13:37:43.763Z,89.43
2019-01-12T13:40:15.307Z,87.91
2019-01-12T13:42:43.949Z,88.83
2019-01-12T13:45:15.334Z,88.88
2019-01-12T13:47:43.817Z,89.35
2019-01-12T13:50:14.684Z,89.78
2019-01-12T13:52:43.212Z,90.46
2019-01-12T13:55:13.493Z,91.31
2019-01-12T13:57:47.346Z,91.46
2019-01-12T14:00:15.575Z,92.29
2019-01-12T14:02:44.125Z,92.34
2019-01-12T14:05:12.647Z,92.80
2019-01-12T14:07:41.218Z,93.35
2019-01-12T14:10:12.779Z,93.38
2019-01-12T14:12:41.380Z,93.63
2019-01-12T14:15:12.628Z,94.44
2019-01-12T14:17:41.230Z,95.34
2019-01-12T14:20:15.589Z,95.94
2019-01-12T14:22:44.338Z,96.94
2019-01-12T14:25:12.922Z,97.98
2019-01-12T14:27:41.528Z,98.60
2019-01-12T14:30:15.617Z,99.08
2019-01-12T14:32:43.505Z,99.42
2019-01-12T14:35:14.589Z,99.72
2019-01-12T14:37:43.348Z,100.00
2019-01-12T14:40:14.438Z,100.00
2019-01-12T14:42:43.113Z,100.00
2019-01-12T14:45:23.121Z,100.00
2019-01-12T14:47:51.825Z,100.00
2019-01-12T14:50:20.463Z,100.00
2019-01-12T14:52:49.078Z,100.00
2019-01-12T14:55:19.110Z,100.00
2019-01-12T14:57:47.740Z,100.00
2019-01-12T15:00:18.348Z,100.00
2019-01-12T15:02:46.908Z,100.00
2019-01-12T15:05:17.451Z,100.00
2019-01-12T15:07:46.444Z,100.00
2019-01-12T15:10:17.310Z,100.00
2019-01-12T15:12:46.299Z,100.00
2019-01-12T15:15:19.081Z,100.00
2019-01-12T15:17:47.999Z,100.00
2019-01-12T15:20:21.333Z,100.00
2019-01-12T15:22:49.956Z,100.00
2019-01-12T15:25:18.503Z,100.00
2019-01-12T15:27:46.989Z,100.00
2019-01-12T15:30:21.201Z,100.00
2019-01-12T15:32:50.013Z,100.00
2019-01-12T15:35:19.391Z,100.00
2019-01-12T15:37:47.933Z,100.00
2019-01-12T15:40:18.555Z,100.00
2019-01-12T15:42:47.081Z,100.00
2019-01-12T15:45:20.541Z,100.00
2019-01-12T15:47:49.199Z,100.00
2019-01-12T15:50:22.658Z,100.00
2019-01-12T15:52:51.268Z,100.00
2019-01-12T15:55:19.905Z,100.00
2019-01-12T15:57:48.494Z,100.00
2019-01-12T16:00:25.252Z,100.00
2019-01-12T16:02:53.824Z,100.00
2019-01-12T16:05:22.350Z,100.00
2019-01-12T16:07:50.984Z,100.00
2019-01-12T16:10:19.609Z,100.00
2019-01-12T16:12:48.122Z,100.00
2019-01-12T16:15:21.448Z,100.00
2019-01-12T16:17:50.171Z,100.00
2019-01-12T16:20:21.698Z,100.00
2019-01-12T16:22:50.255Z,100.00
2019-01-12T16:25:18.894Z,100.00
2019-01-12T16:27:47.446Z,100.00
2019-01-12T16:30:17.873Z,100.00
2019-01-12T16:32:46.876Z,100.00
2019-01-12T16:35:15.504Z,100.00
2019-01-12T16:37:44.128Z,100.00
2019-01-12T16:40:15.391Z,100.00
2019-01-12T16:42:44.299Z,100.00
2019-01-12T16:45:13.010Z,100.00
2019-01-12T16:47:41.575Z,100.00
2019-01-12T16:50:10.213Z,100.00
2019-01-12T16:52:38.754Z,100.00
2019-01-12T16:55:10.281Z,100.00
2019-01-12T16:57:38.907Z,100.00
2019-01-12T17:00:13.233Z,100.00
2019-01-12T17:02:42.049Z,100.00
2019-01-12T17:05:10.656Z,100.00
2019-01-12T17:07:39.280Z,100.00
2019-01-12T17:10:15.744Z,100.00
2019-01-12T17:12:44.289Z,100.00
2019-01-12T17:15:14.620Z,100.00
2019-01-12T17:17:43.265Z,100.00
2019-01-12T17:20:19.720Z,100.00
2019-01-12T17:22:46.354Z,100.00
2019-01-12T17:25:14.935Z,100.00
2019-01-12T17:27:43.571Z,100.00
2019-01-12T17:30:17.871Z,100.00
2019-01-12T17:32:49.200Z,100.00
2019-01-12T17:35:17.777Z,100.00
2019-01-12T17:37:47.115Z,100.00
2019-01-12T17:40:17.176Z,100.00
2019-01-12T17:42:45.718Z,100.00
2019-01-12T17:45:18.919Z,100.00
2019-01-12T17:47:47.811Z,100.00
2019-01-12T17:50:18.331Z,100.00
2019-01-12T17:52:47.127Z,100.00
2019-01-12T17:55:17.597Z,100.00
2019-01-12T17:57:46.233Z,100.00
2019-01-12T18:00:24.845Z,100.00
2019-01-12T18:02:53.779Z,100.00
2019-01-12T18:05:22.392Z,100.00
2019-01-12T18:07:51.184Z,100.00
2019-01-12T18:10:19.916Z,100.00
2019-01-12T18:12:48.584Z,100.00
2019-01-12T18:15:18.934Z,100.00
2019-01-12T18:17:47.447Z,100.00
2019-01-12T18:20:17.472Z,100.00
2019-01-12T18:22:46.183Z,100.00
2019-01-12T18:25:15.031Z,100.00
2019-01-12T18:27:43.593Z,100.00
2019-01-12T18:30:17.829Z,100.00
2019-01-12T18:32:46.716Z,100.00
2019-01-12T18:35:15.296Z,100.00
2019-01-12T18:37:44.140Z,100.00
2019-01-12T18:40:15.446Z,100.00
2019-01-12T18:42:44.204Z,100.00
2019-01-12T18:45:15.590Z,100.00
2019-01-12T18:47:44.336Z,100.00
2019-01-12T18:50:24.042Z,100.00
2019-01-12T18:52:53.218Z,100.00
2019-01-12T18:55:21.910Z,100.00
2019-01-12T18:57:50.605Z,100.00
2019-01-12T19:00:21.166Z,100.00
2019-01-12T19:02:50.220Z,100.00
2019-01-12T19:05:18.756Z,100.00
2019-01-12T19:07:48.017Z,100.00
2019-01-12T19:10:16.688Z,100.00
2019-01-12T19:12:45.447Z,100.00
2019-01-12T19:15:16.680Z,100.00
2019-01-12T19:17:45.394Z,100.00
2019-01-12T19:20:14.142Z,100.00
2019-01-12T19:22:43.082Z,100.00
2019-01-12T19:25:13.995Z,100.00
2019-01-12T19:27:42.603Z,100.00
2019-01-12T19:30:22.218Z,100.00
2019-01-12T19:32:50.847Z,100.00
2019-01-12T19:35:24.888Z,100.00
2019-01-12T19:37:53.572Z,100.00
2019-01-12T19:40:23.118Z,100.00
2019-01-12T19:42:52.020Z,100.00
2019-01-12T19:45:20.541Z,100.00
2019-01-12T19:47:49.201Z,100.00
2019-01-12T19:50:24.518Z,100.00
2019-01-12T19:52:53.257Z,100.00
2019-01-12T19:55:21.889Z,100.00
2019-01-12T19:57:50.503Z,100.00
2019-01-12T20:00:21.715Z,100.00
2019-01-12T20:02:50.432Z,100.00
2019-01-12T20:05:19.022Z,100.00
2019-01-12T20:07:48.755Z,100.00
2019-01-12T20:10:18.883Z,100.00
2019-01-12T20:12:47.379Z,100.00
2019-01-12T20:15:18.520Z,100.00
2019-01-12T20:17:47.048Z,100.00
2019-01-12T20:20:16.643Z,100.00
2019-01-12T20:22:45.196Z,100.00
2019-01-12T20:25:16.951Z,100.00
2019-01-12T20:27:45.551Z,100.00
2019-01-12T20:30:19.864Z,100.00
2019-01-12T20:32:57.731Z,100.00
2019-01-12T20:35:32.460Z,100.00
2019-01-12T20:38:04.033Z,100.00
2019-01-12T20:40:47.226Z,100.00
2019-01-12T20:43:36.397Z,100.00
2019-01-12T20:46:10.783Z,100.00
2019-01-12T20:48:51.299Z,100.00
2019-01-12T20:51:37.657Z,100.00
2019-01-12T20:54:21.380Z,100.00
2019-01-12T20:57:21.550Z,100.00
2019-01-12T20:59:53.192Z,100.00
2019-01-12T21:02:27.529Z,100.00
2019-01-12T21:05:20.203Z,100.00
2019-01-12T21:07:54.672Z,100.00
2019-01-12T21:10:29.402Z,100.00
2019-01-12T21:13:23.355Z,100.00
2019-01-12T21:15:55.183Z,100.00
2019-01-12T21:18:24.024Z,100.00
2019-01-12T21:20:52.894Z,100.00
2019-01-12T21:23:21.733Z,100.00
2019-01-12T21:25:50.389Z,100.00
2019-01-12T21:28:19.265Z,100.00
2019-01-12T21:30:47.918Z,100.00
2019-01-12T21:33:16.539Z,100.00
2019-01-12T21:35:45.317Z,100.00
2019-01-12T21:38:13.992Z,100.00
2019-01-12T21:40:42.851Z,100.00
2019-01-12T21:43:11.394Z,100.00
2019-01-12T21:45:40.130Z,100.00
2019-01-12T21:48:08.717Z,100.00
2019-01-12T21:50:37.321Z,100.00
2019-01-12T21:53:06.095Z,100.00
2019-01-12T21:55:34.726Z,100.00
2019-01-12T21:58:03.456Z,100.00
2019-01-12T22:00:32.477Z,100.00
2019-01-12T22:03:01.166Z,100.00
2019-01-12T22:05:29.767Z,100.00
2019-01-12T22:07:58.285Z,100.00
2019-01-12T22:10:26.930Z,100.00
2019-01-12T22:12:55.491Z,100.00
2019-01-12T22:15:24.064Z,100.00
2019-01-12T22:17:52.750Z,100.00
2019-01-12T22:20:21.383Z,100.00
2019-01-12T22:22:50.043Z,100.00
2019-01-12T22:25:18.582Z,100.00
2019-01-12T22:27:47.401Z,100.00
2019-01-12T22:30:17.771Z,100.00
2019-01-12T22:32:46.712Z,100.00
2019-01-12T22:35:15.263Z,100.00
2019-01-12T22:37:43.844Z,100.00
2019-01-12T22:40:17.538Z,100.00
2019-01-12T22:42:46.094Z,100.00
2019-01-12T22:45:14.713Z,100.00
2019-01-12T22:47:43.487Z,100.00
2019-01-12T22:50:15.106Z,100.00
2019-01-12T22:52:44.007Z,100.00
2019-01-12T22:55:13.860Z,100.00
2019-01-12T22:57:42.510Z,100.00
2019-01-12T23:00:41.146Z,100.00
2019-01-12T23:03:09.729Z,100.00
2019-01-12T23:05:38.330Z,100.00
2019-01-12T23:08:06.955Z,100.00
2019-01-12T23:10:35.632Z,100.00
2019-01-12T23:13:04.269Z,100.00
2019-01-12T23:15:32.788Z,100.00
2019-01-12T23:18:01.397Z,100.00
2019-01-12T23:20:30.076Z,100.00
2019-01-12T23:22:58.704Z,100.00
2019-01-12T23:25:27.553Z,100.00
2019-01-12T23:27:56.448Z,100.00
2019-01-12T23:30:24.929Z,100.00
2019-01-12T23:32:53.634Z,100.00
2019-01-12T23:35:22.251Z,100.00
2019-01-12T23:37:51.068Z,100.00
2019-01-12T23:40:19.630Z,100.00
2019-01-12T23:42:48.240Z,100.00
2019-01-12T23:45:16.798Z,100.00
2019-01-12T23:47:45.476Z,100.00
2019-01-12T23:50:14.407Z,100.00
2019-01-12T23:52:43.210Z,100.00
2019-01-12T23:55:11.832Z,100.00
2019-01-12T23:57:40.429Z,100.00
